sensor_id;sensor_type;location;lat;lon;timestamp;pressure;altitude;pressure_sealevel;temperature;humidity
44140;BME280;29803;51.048;4.686;2023-01-10T00:00:11;101356.19;;;4.24;100.00
44140;BME280;29803;51.048;4.686;2023-01-10T00:02:42;101357.03;;;4.25;100.00
44140;BME280;29803;51.048;4.686;2023-01-10T00:05:13;101370.19;;;4.26;100.00
44140;BME280;29803;51.048;4.686;2023-01-10T00:07:44;101369.47;;;4.24;100.00
44140;BME280;29803;51.048;4.686;2023-01-10T00:10:15;101365.75;;;4.27;100.00
44140;BME280;29803;51.048;4.686;2023-01-10T00:12:45;101378.28;;;4.25;100.00
44140;BME280;29803;51.048;4.686;2023-01-10T00:15:35;101373.81;;;4.25;100.00
44140;BME280;29803;51.048;4.686;2023-01-10T00:18:06;101375.75;;;4.23;100.00
44140;BME280;29803;51.048;4.686;2023-01-10T00:20:36;101384.44;;;4.25;100.00
44140;BME280;29803;51.048;4.686;2023-01-10T00:23:07;101387.00;;;4.27;100.00
44140;BME280;29803;51.048;4.686;2023-01-10T00:25:38;101389.53;;;4.28;100.00
44140;BME280;29803;51.048;4.686;2023-01-10T00:28:08;101401.22;;;4.26;100.00
44140;BME280;29803;51.048;4.686;2023-01-10T00:30:53;101418.25;;;4.23;100.00
44140;BME280;29803;51.048;4.686;2023-01-10T00:33:25;101414.63;;;4.24;100.00
44140;BME280;29803;51.048;4.686;2023-01-10T00:35:55;101404.97;;;4.23;100.00
44140;BME280;29803;51.048;4.686;2023-01-10T00:38:26;101419.94;;;4.24;100.00
44140;BME280;29803;51.048;4.686;2023-01-10T00:40:56;101416.09;;;4.28;100.00
44140;BME280;29803;51.048;4.686;2023-01-10T00:43:27;101412.03;;;4.35;100.00
44140;BME280;29803;51.048;4.686;2023-01-10T00:46:16;101417.75;;;4.42;100.00
44140;BME280;29803;51.048;4.686;2023-01-10T00:48:47;101421.75;;;4.48;100.00
44140;BME280;29803;51.048;4.686;2023-01-10T00:51:18;101417.91;;;4.52;100.00
44140;BME280;29803;51.048;4.686;2023-01-10T00:53:48;101416.72;;;4.56;100.00
44140;BME280;29803;51.048;4.686;2023-01-10T00:56:18;101417.47;;;4.58;100.00
44140;BME280;29803;51.048;4.686;2023-01-10T00:58:49;101416.50;;;4.59;100.00
44140;BME280;29803;51.048;4.686;2023-01-10T01:01:19;101425.94;;;4.63;100.00
44140;BME280;29803;51.048;4.686;2023-01-10T01:03:50;101422.94;;;4.67;100.00
44140;BME280;29803;51.048;4.686;2023-01-10T01:06:20;101432.50;;;4.70;100.00
44140;BME280;29803;51.048;4.686;2023-01-10T01:08:51;101435.16;;;4.70;100.00
44140;BME280;29803;51.048;4.686;2023-01-10T01:11:21;101438.66;;;4.71;100.00
44140;BME280;29803;51.048;4.686;2023-01-10T01:13:52;101440.25;;;4.73;100.00
44140;BME280;29803;51.048;4.686;2023-01-10T01:16:22;101444.38;;;4.77;100.00
44140;BME280;29803;51.048;4.686;2023-01-10T01:18:53;101453.06;;;4.79;100.00
44140;BME280;29803;51.048;4.686;2023-01-10T01:21:23;101457.09;;;4.85;100.00
44140;BME280;29803;51.048;4.686;2023-01-10T01:23:57;101453.97;;;4.91;100.00
44140;BME280;29803;51.048;4.686;2023-01-10T01:26:27;101464.59;;;4.91;100.00
44140;BME280;29803;51.048;4.686;2023-01-10T01:28:58;101463.66;;;4.92;100.00
44140;BME280;29803;51.048;4.686;2023-01-10T01:31:28;101470.31;;;4.98;100.00
44140;BME280;29803;51.048;4.686;2023-01-10T01:33:59;101470.69;;;5.04;100.00
44140;BME280;29803;51.048;4.686;2023-01-10T01:36:29;101472.25;;;5.07;100.00
44140;BME280;29803;51.048;4.686;2023-01-10T01:39:00;101481.13;;;5.07;100.00
44140;BME280;29803;51.048;4.686;2023-01-10T01:41:30;101474.06;;;5.06;100.00
44140;BME280;29803;51.048;4.686;2023-01-10T01:44:19;101480.88;;;5.10;100.00
44140;BME280;29803;51.048;4.686;2023-01-10T01:49:40;101496.28;;;5.18;100.00
44140;BME280;29803;51.048;4.686;2023-01-10T01:52:22;101505.59;;;5.24;100.00
44140;BME280;29803;51.048;4.686;2023-01-10T01:54:57;101498.69;;;5.21;100.00
44140;BME280;29803;51.048;4.686;2023-01-10T01:57:30;101503.63;;;5.14;100.00
44140;BME280;29803;51.048;4.686;2023-01-10T02:00:04;101496.94;;;5.09;100.00
44140;BME280;29803;51.048;4.686;2023-01-10T02:02:38;101502.09;;;4.99;100.00
44140;BME280;29803;51.048;4.686;2023-01-10T02:05:14;101508.22;;;4.88;100.00
44140;BME280;29803;51.048;4.686;2023-01-10T02:07:45;101507.72;;;4.83;100.00
44140;BME280;29803;51.048;4.686;2023-01-10T02:10:39;101505.28;;;4.80;100.00
44140;BME280;29803;51.048;4.686;2023-01-10T02:13:14;101512.63;;;4.77;100.00
44140;BME280;29803;51.048;4.686;2023-01-10T02:16:05;101513.50;;;4.77;100.00
44140;BME280;29803;51.048;4.686;2023-01-10T02:18:46;101511.03;;;4.74;100.00
44140;BME280;29803;51.048;4.686;2023-01-10T02:37:09;101534.91;;;4.87;100.00
44140;BME280;29803;51.048;4.686;2023-01-10T02:42:24;101535.16;;;4.84;100.00
44140;BME280;29803;51.048;4.686;2023-01-10T02:45:03;101541.31;;;4.84;100.00
44140;BME280;29803;51.048;4.686;2023-01-10T02:47:39;101546.50;;;4.86;100.00
44140;BME280;29803;51.048;4.686;2023-01-10T02:50:30;101546.50;;;4.86;100.00
44140;BME280;29803;51.048;4.686;2023-01-10T02:53:14;101545.78;;;4.84;100.00
44140;BME280;29803;51.048;4.686;2023-01-10T03:01:18;101553.13;;;4.80;100.00
44140;BME280;29803;51.048;4.686;2023-01-10T03:06:55;101562.34;;;4.63;100.00
44140;BME280;29803;51.048;4.686;2023-01-10T03:09:34;101558.91;;;4.61;100.00
44140;BME280;29803;51.048;4.686;2023-01-10T03:12:13;101567.13;;;4.58;100.00
44140;BME280;29803;51.048;4.686;2023-01-10T03:14:49;101574.47;;;4.55;100.00
44140;BME280;29803;51.048;4.686;2023-01-10T03:17:21;101577.56;;;4.49;100.00
44140;BME280;29803;51.048;4.686;2023-01-10T03:19:55;101568.22;;;4.43;100.00
44140;BME280;29803;51.048;4.686;2023-01-10T03:22:29;101580.13;;;4.37;100.00
44140;BME280;29803;51.048;4.686;2023-01-10T03:25:04;101577.81;;;4.33;100.00
44140;BME280;29803;51.048;4.686;2023-01-10T03:27:58;101579.94;;;4.28;100.00
44140;BME280;29803;51.048;4.686;2023-01-10T03:30:43;101588.31;;;4.22;100.00
44140;BME280;29803;51.048;4.686;2023-01-10T03:33:19;101580.88;;;4.14;100.00
44140;BME280;29803;51.048;4.686;2023-01-10T03:45:09;101592.16;;;4.05;100.00
44140;BME280;29803;51.048;4.686;2023-01-10T03:47:45;101600.53;;;3.99;100.00
44140;BME280;29803;51.048;4.686;2023-01-10T03:50:19;101604.34;;;3.95;100.00
44140;BME280;29803;51.048;4.686;2023-01-10T03:52:50;101609.56;;;3.96;100.00
44140;BME280;29803;51.048;4.686;2023-01-10T03:55:23;101618.59;;;3.94;100.00
44140;BME280;29803;51.048;4.686;2023-01-10T03:57:55;101615.94;;;3.94;100.00
44140;BME280;29803;51.048;4.686;2023-01-10T04:00:26;101614.25;;;3.93;100.00
44140;BME280;29803;51.048;4.686;2023-01-10T04:02:57;101609.91;;;3.92;100.00
44140;BME280;29803;51.048;4.686;2023-01-10T04:05:28;101615.19;;;3.92;100.00
44140;BME280;29803;51.048;4.686;2023-01-10T04:07:58;101615.19;;;3.92;100.00
44140;BME280;29803;51.048;4.686;2023-01-10T04:10:29;101619.56;;;3.93;100.00
44140;BME280;29803;51.048;4.686;2023-01-10T04:13:00;101625.06;;;3.89;100.00
44140;BME280;29803;51.048;4.686;2023-01-10T04:15:31;101644.78;;;3.85;100.00
44140;BME280;29803;51.048;4.686;2023-01-10T04:18:02;101645.03;;;3.82;100.00
44140;BME280;29803;51.048;4.686;2023-01-10T04:20:32;101634.59;;;3.79;100.00
44140;BME280;29803;51.048;4.686;2023-01-10T04:23:03;101632.06;;;3.78;100.00
44140;BME280;29803;51.048;4.686;2023-01-10T04:25:33;101645.41;;;3.76;100.00
44140;BME280;29803;51.048;4.686;2023-01-10T04:28:04;101655.19;;;3.76;100.00
44140;BME280;29803;51.048;4.686;2023-01-10T04:30:34;101651.78;;;3.74;100.00
44140;BME280;29803;51.048;4.686;2023-01-10T04:33:05;101656.44;;;3.70;100.00
44140;BME280;29803;51.048;4.686;2023-01-10T04:35:36;101657.41;;;3.69;100.00
44140;BME280;29803;51.048;4.686;2023-01-10T04:38:06;101661.00;;;3.68;100.00
44140;BME280;29803;51.048;4.686;2023-01-10T04:40:37;101658.47;;;3.67;100.00
44140;BME280;29803;51.048;4.686;2023-01-10T04:43:09;101648.91;;;3.64;100.00
44140;BME280;29803;51.048;4.686;2023-01-10T04:45:42;101659.50;;;3.64;100.00
44140;BME280;29803;51.048;4.686;2023-01-10T04:48:12;101670.22;;;3.62;100.00
44140;BME280;29803;51.048;4.686;2023-01-10T04:50:48;101680.94;;;3.61;100.00
44140;BME280;29803;51.048;4.686;2023-01-10T04:53:19;101669.47;;;3.60;100.00
44140;BME280;29803;51.048;4.686;2023-01-10T04:55:50;101662.66;;;3.56;100.00
44140;BME280;29803;51.048;4.686;2023-01-10T04:58:20;101674.34;;;3.54;100.00
44140;BME280;29803;51.048;4.686;2023-01-10T05:00:51;101677.44;;;3.60;100.00
44140;BME280;29803;51.048;4.686;2023-01-10T05:03:21;101692.59;;;3.58;100.00
44140;BME280;29803;51.048;4.686;2023-01-10T05:05:52;101696.84;;;3.61;100.00
44140;BME280;29803;51.048;4.686;2023-01-10T05:08:22;101699.41;;;3.62;100.00
44140;BME280;29803;51.048;4.686;2023-01-10T05:10:52;101696.78;;;3.62;100.00
44140;BME280;29803;51.048;4.686;2023-01-10T05:13:23;101697.50;;;3.64;100.00
44140;BME280;29803;51.048;4.686;2023-01-10T05:15:56;101697.50;;;3.64;100.00
44140;BME280;29803;51.048;4.686;2023-01-10T05:18:27;101698.81;;;3.72;100.00
44140;BME280;29803;51.048;4.686;2023-01-10T05:21:10;101697.19;;;3.69;100.00
44140;BME280;29803;51.048;4.686;2023-01-10T05:23:41;101695.81;;;3.63;100.00
44140;BME280;29803;51.048;4.686;2023-01-10T05:26:14;101711.28;;;3.57;100.00
44140;BME280;29803;51.048;4.686;2023-01-10T05:28:45;101715.50;;;3.47;100.00
44140;BME280;29803;51.048;4.686;2023-01-10T05:31:17;101715.16;;;3.51;100.00
44140;BME280;29803;51.048;4.686;2023-01-10T05:33:50;101730.44;;;3.48;100.00
44140;BME280;29803;51.048;4.686;2023-01-10T05:36:20;101726.41;;;3.42;100.00
44140;BME280;29803;51.048;4.686;2023-01-10T05:38:51;101723.75;;;3.42;100.00
44140;BME280;29803;51.048;4.686;2023-01-10T05:41:21;101724.66;;;3.41;100.00
44140;BME280;29803;51.048;4.686;2023-01-10T05:43:52;101718.19;;;3.32;100.00
44140;BME280;29803;51.048;4.686;2023-01-10T05:46:23;101720.44;;;3.24;100.00
44140;BME280;29803;51.048;4.686;2023-01-10T05:48:53;101724.25;;;3.20;100.00
44140;BME280;29803;51.048;4.686;2023-01-10T05:51:24;101731.56;;;3.17;100.00
44140;BME280;29803;51.048;4.686;2023-01-10T05:53:55;101726.63;;;3.10;100.00
44140;BME280;29803;51.048;4.686;2023-01-10T05:56:27;101729.88;;;3.01;100.00
44140;BME280;29803;51.048;4.686;2023-01-10T05:58:59;101741.69;;;2.96;100.00
44140;BME280;29803;51.048;4.686;2023-01-10T06:01:29;101738.28;;;2.94;100.00
44140;BME280;29803;51.048;4.686;2023-01-10T06:03:59;101734.78;;;2.93;100.00
44140;BME280;29803;51.048;4.686;2023-01-10T06:06:30;101740.09;;;2.93;100.00
44140;BME280;29803;51.048;4.686;2023-01-10T06:09:00;101749.00;;;2.92;100.00
44140;BME280;29803;51.048;4.686;2023-01-10T06:11:31;101748.78;;;2.95;100.00
44140;BME280;29803;51.048;4.686;2023-01-10T06:14:05;101737.16;;;2.98;100.00
44140;BME280;29803;51.048;4.686;2023-01-10T06:16:36;101734.41;;;2.99;100.00
44140;BME280;29803;51.048;4.686;2023-01-10T06:19:07;101743.88;;;3.03;100.00
44140;BME280;29803;51.048;4.686;2023-01-10T06:21:38;101743.31;;;3.13;100.00
44140;BME280;29803;51.048;4.686;2023-01-10T06:24:09;101745.84;;;3.14;100.00
44140;BME280;29803;51.048;4.686;2023-01-10T06:26:40;101747.38;;;3.18;100.00
44140;BME280;29803;51.048;4.686;2023-01-10T06:29:11;101749.91;;;3.20;100.00
44140;BME280;29803;51.048;4.686;2023-01-10T06:31:41;101749.81;;;3.21;100.00
44140;BME280;29803;51.048;4.686;2023-01-10T06:34:12;101756.84;;;3.22;100.00
44140;BME280;29803;51.048;4.686;2023-01-10T06:36:42;101753.41;;;3.20;100.00
44140;BME280;29803;51.048;4.686;2023-01-10T06:39:13;101760.63;;;3.18;100.00
44140;BME280;29803;51.048;4.686;2023-01-10T06:41:43;101766.09;;;3.15;100.00
44140;BME280;29803;51.048;4.686;2023-01-10T06:44:13;101767.16;;;3.13;100.00
44140;BME280;29803;51.048;4.686;2023-01-10T06:46:44;101773.59;;;3.08;100.00
44140;BME280;29803;51.048;4.686;2023-01-10T06:49:14;101770.00;;;3.09;100.00
44140;BME280;29803;51.048;4.686;2023-01-10T06:51:45;101766.09;;;3.15;100.00
44140;BME280;29803;51.048;4.686;2023-01-10T06:54:15;101776.72;;;3.15;100.00
44140;BME280;29803;51.048;4.686;2023-01-10T06:56:47;101776.94;;;3.12;100.00
44140;BME280;29803;51.048;4.686;2023-01-10T06:59:18;101780.88;;;3.05;100.00
44140;BME280;29803;51.048;4.686;2023-01-10T07:01:48;101788.38;;;2.98;100.00
44140;BME280;29803;51.048;4.686;2023-01-10T07:04:19;101787.53;;;2.98;100.00
44140;BME280;29803;51.048;4.686;2023-01-10T07:06:49;101801.81;;;2.95;100.00
44140;BME280;29803;51.048;4.686;2023-01-10T07:09:20;101802.75;;;2.94;100.00
44140;BME280;29803;51.048;4.686;2023-01-10T07:11:50;101808.91;;;2.95;100.00
44140;BME280;29803;51.048;4.686;2023-01-10T07:14:20;101803.81;;;2.92;100.00
44140;BME280;29803;51.048;4.686;2023-01-10T07:16:51;101800.50;;;2.88;100.00
44140;BME280;29803;51.048;4.686;2023-01-10T07:19:21;101814.00;;;2.83;100.00
44140;BME280;29803;51.048;4.686;2023-01-10T07:21:52;101819.50;;;2.80;100.00
44140;BME280;29803;51.048;4.686;2023-01-10T07:24:22;101822.50;;;2.74;100.00
44140;BME280;29803;51.048;4.686;2023-01-10T07:26:54;101828.00;;;2.71;100.00
44140;BME280;29803;51.048;4.686;2023-01-10T07:29:25;101826.66;;;2.64;100.00
44140;BME280;29803;51.048;4.686;2023-01-10T07:31:55;101830.25;;;2.63;100.00
44140;BME280;29803;51.048;4.686;2023-01-10T07:34:26;101843.50;;;2.63;100.00
44140;BME280;29803;51.048;4.686;2023-01-10T07:36:56;101843.50;;;2.63;100.00
44140;BME280;29803;51.048;4.686;2023-01-10T07:39:27;101844.19;;;2.67;100.00
44140;BME280;29803;51.048;4.686;2023-01-10T07:41:58;101849.38;;;2.68;100.00
44140;BME280;29803;51.048;4.686;2023-01-10T07:44:30;101865.97;;;2.72;100.00
44140;BME280;29803;51.048;4.686;2023-01-10T07:47:01;101856.13;;;2.74;100.00
44140;BME280;29803;51.048;4.686;2023-01-10T07:49:32;101847.16;;;2.76;100.00
44140;BME280;29803;51.048;4.686;2023-01-10T07:52:03;101846.19;;;2.77;100.00
44140;BME280;29803;51.048;4.686;2023-01-10T07:54:34;101851.88;;;2.85;100.00
44140;BME280;29803;51.048;4.686;2023-01-10T07:57:05;101844.88;;;2.84;100.00
44140;BME280;29803;51.048;4.686;2023-01-10T07:59:35;101836.53;;;2.91;100.00
44140;BME280;29803;51.048;4.686;2023-01-10T08:02:08;101837.13;;;2.96;100.00
44140;BME280;29803;51.048;4.686;2023-01-10T08:04:39;101841.13;;;3.03;100.00
44140;BME280;29803;51.048;4.686;2023-01-10T08:07:10;101842.53;;;3.08;100.00
44140;BME280;29803;51.048;4.686;2023-01-10T08:09:40;101841.31;;;3.14;100.00
44140;BME280;29803;51.048;4.686;2023-01-10T08:12:11;101839.22;;;3.19;100.00
44140;BME280;29803;51.048;4.686;2023-01-10T08:14:41;101837.91;;;3.26;100.00
44140;BME280;29803;51.048;4.686;2023-01-10T08:17:12;101836.69;;;3.32;100.00
44140;BME280;29803;51.048;4.686;2023-01-10T08:19:43;101834.00;;;3.46;100.00
44140;BME280;29803;51.048;4.686;2023-01-10T08:22:13;101827.25;;;3.55;100.00
44140;BME280;29803;51.048;4.686;2023-01-10T08:24:44;101833.69;;;3.65;100.00
44140;BME280;29803;51.048;4.686;2023-01-10T08:27:14;101834.91;;;3.74;100.00
44140;BME280;29803;51.048;4.686;2023-01-10T08:29:45;101838.69;;;3.84;100.00
44140;BME280;29803;51.048;4.686;2023-01-10T08:32:15;101834.78;;;3.89;100.00
44140;BME280;29803;51.048;4.686;2023-01-10T08:34:46;101837.03;;;3.96;100.00
44140;BME280;29803;51.048;4.686;2023-01-10T08:37:16;101837.28;;;4.05;100.00
44140;BME280;29803;51.048;4.686;2023-01-10T08:39:47;101832.28;;;4.01;100.00
44140;BME280;29803;51.048;4.686;2023-01-10T08:42:18;101835.88;;;4.00;100.00
44140;BME280;29803;51.048;4.686;2023-01-10T08:44:48;101836.72;;;4.00;100.00
44140;BME280;29803;51.048;4.686;2023-01-10T08:47:19;101828.75;;;4.00;100.00
44140;BME280;29803;51.048;4.686;2023-01-10T08:49:49;101835.69;;;4.03;100.00
44140;BME280;29803;51.048;4.686;2023-01-10T08:52:20;101830.16;;;4.06;100.00
44140;BME280;29803;51.048;4.686;2023-01-10T08:54:50;101833.38;;;4.11;100.00
44140;BME280;29803;51.048;4.686;2023-01-10T08:57:21;101833.19;;;4.14;100.00
44140;BME280;29803;51.048;4.686;2023-01-10T08:59:52;101834.69;;;4.18;100.00
44140;BME280;29803;51.048;4.686;2023-01-10T09:02:22;101828.63;;;4.16;100.00
44140;BME280;29803;51.048;4.686;2023-01-10T09:04:53;101839.16;;;4.18;100.00
44140;BME280;29803;51.048;4.686;2023-01-10T09:07:23;101839.03;;;4.19;100.00
44140;BME280;29803;51.048;4.686;2023-01-10T09:09:54;101837.25;;;4.20;100.00
44140;BME280;29803;51.048;4.686;2023-01-10T09:12:24;101834.09;;;4.27;100.00
44140;BME280;29803;51.048;4.686;2023-01-10T09:15:13;101835.56;;;4.31;100.00
44140;BME280;29803;51.048;4.686;2023-01-10T09:17:44;101838.78;;;4.36;100.00
44140;BME280;29803;51.048;4.686;2023-01-10T09:20:15;101834.22;;;4.38;100.00
44140;BME280;29803;51.048;4.686;2023-01-10T09:22:45;101826.03;;;4.41;100.00
44140;BME280;29803;51.048;4.686;2023-01-10T09:25:16;101824.78;;;4.47;100.00
44140;BME280;29803;51.048;4.686;2023-01-10T09:27:47;101815.75;;;4.50;100.00
44140;BME280;29803;51.048;4.686;2023-01-10T09:30:26;101817.06;;;4.57;100.00
44140;BME280;29803;51.048;4.686;2023-01-10T09:32:58;101814.41;;;4.57;100.00
44140;BME280;29803;51.048;4.686;2023-01-10T09:35:29;101806.75;;;4.65;100.00
44140;BME280;29803;51.048;4.686;2023-01-10T09:38:01;101797.59;;;4.69;100.00
44140;BME280;29803;51.048;4.686;2023-01-10T09:40:42;101804.63;;;4.70;100.00
44140;BME280;29803;51.048;4.686;2023-01-10T09:51:47;101795.47;;;4.87;100.00
44140;BME280;29803;51.048;4.686;2023-01-10T09:54:27;101787.28;;;4.90;100.00
44140;BME280;29803;51.048;4.686;2023-01-10T09:56:59;101786.25;;;4.92;100.00
44140;BME280;29803;51.048;4.686;2023-01-10T09:59:39;101786.00;;;4.96;100.00
44140;BME280;29803;51.048;4.686;2023-01-10T10:02:30;101774.94;;;5.02;100.00
44140;BME280;29803;51.048;4.686;2023-01-10T10:07:40;101775.25;;;5.10;100.00
44140;BME280;29803;51.048;4.686;2023-01-10T10:10:17;101773.56;;;5.09;100.00
44140;BME280;29803;51.048;4.686;2023-01-10T10:13:07;101782.06;;;5.14;100.00
44140;BME280;29803;51.048;4.686;2023-01-10T10:15:50;101778.31;;;5.16;100.00
44140;BME280;29803;51.048;4.686;2023-01-10T10:18:36;101773.22;;;5.26;100.00
44140;BME280;29803;51.048;4.686;2023-01-10T10:24:24;101758.97;;;5.27;100.00
44140;BME280;29803;51.048;4.686;2023-01-10T10:27:21;101751.78;;;5.40;100.00
44140;BME280;29803;51.048;4.686;2023-01-10T10:35:22;101738.84;;;5.60;100.00
44140;BME280;29803;51.048;4.686;2023-01-10T10:38:00;101729.22;;;5.70;100.00
44140;BME280;29803;51.048;4.686;2023-01-10T10:40:36;101741.84;;;5.79;100.00
44140;BME280;29803;51.048;4.686;2023-01-10T10:43:35;101732.91;;;5.80;100.00
44140;BME280;29803;51.048;4.686;2023-01-10T10:46:09;101729.13;;;5.95;100.00
44140;BME280;29803;51.048;4.686;2023-01-10T10:48:55;101730.09;;;5.94;100.00
44140;BME280;29803;51.048;4.686;2023-01-10T10:51:50;101719.94;;;6.00;100.00
44140;BME280;29803;51.048;4.686;2023-01-10T10:54:21;101714.84;;;5.96;100.00
44140;BME280;29803;51.048;4.686;2023-01-10T10:56:53;101721.50;;;6.02;100.00
44140;BME280;29803;51.048;4.686;2023-01-10T10:59:25;101707.13;;;6.05;100.00
44140;BME280;29803;51.048;4.686;2023-01-10T11:01:55;101694.53;;;6.07;100.00
44140;BME280;29803;51.048;4.686;2023-01-10T11:04:26;101690.94;;;6.08;100.00
44140;BME280;29803;51.048;4.686;2023-01-10T11:06:57;101677.47;;;6.09;100.00
44140;BME280;29803;51.048;4.686;2023-01-10T11:09:28;101681.72;;;6.12;100.00
44140;BME280;29803;51.048;4.686;2023-01-10T11:12:05;101692.88;;;6.17;100.00
44140;BME280;29803;51.048;4.686;2023-01-10T11:14:41;101689.84;;;6.21;100.00
44140;BME280;29803;51.048;4.686;2023-01-10T11:17:29;101686.84;;;6.26;100.00
44140;BME280;29803;51.048;4.686;2023-01-10T11:20:03;101687.31;;;6.20;100.00
44140;BME280;29803;51.048;4.686;2023-01-10T11:22:43;101688.78;;;6.24;100.00
44140;BME280;29803;51.048;4.686;2023-01-10T11:25:18;101681.50;;;6.26;100.00
44140;BME280;29803;51.048;4.686;2023-01-10T11:27:52;101683.59;;;6.22;100.00
44140;BME280;29803;51.048;4.686;2023-01-10T11:30:26;101675.59;;;6.22;100.00
44140;BME280;29803;51.048;4.686;2023-01-10T11:33:02;101677.03;;;6.27;100.00
44140;BME280;29803;51.048;4.686;2023-01-10T11:35:36;101671.94;;;6.23;100.00
44140;BME280;29803;51.048;4.686;2023-01-10T11:43:46;101683.59;;;6.34;100.00
44140;BME280;29803;51.048;4.686;2023-01-10T11:46:21;101672.81;;;6.35;100.00
44140;BME280;29803;51.048;4.686;2023-01-10T11:49:05;101660.31;;;6.36;100.00
44140;BME280;29803;51.048;4.686;2023-01-10T11:51:45;101660.69;;;6.42;100.00
44140;BME280;29803;51.048;4.686;2023-01-10T11:54:23;101656.94;;;6.45;100.00
44140;BME280;29803;51.048;4.686;2023-01-10T11:57:08;101655.75;;;6.49;100.00
44140;BME280;29803;51.048;4.686;2023-01-10T11:59:56;101659.03;;;6.53;100.00
44140;BME280;29803;51.048;4.686;2023-01-10T12:02:35;101644.09;;;6.50;100.00
44140;BME280;29803;51.048;4.686;2023-01-10T12:05:12;101640.38;;;6.53;100.00
44140;BME280;29803;51.048;4.686;2023-01-10T12:07:57;101629.31;;;6.57;100.00
44140;BME280;29803;51.048;4.686;2023-01-10T12:10:28;101625.56;;;6.60;100.00
44140;BME280;29803;51.048;4.686;2023-01-10T12:13:11;101621.69;;;6.64;100.00
44140;BME280;29803;51.048;4.686;2023-01-10T12:15:42;101616.09;;;6.67;100.00
44140;BME280;29803;51.048;4.686;2023-01-10T12:18:13;101608.94;;;6.67;100.00
44140;BME280;29803;51.048;4.686;2023-01-10T12:20:49;101607.25;;;6.78;100.00
44140;BME280;29803;51.048;4.686;2023-01-10T12:23:21;101602.28;;;6.84;100.00
44140;BME280;29803;51.048;4.686;2023-01-10T12:25:54;101614.41;;;6.88;100.00
44140;BME280;29803;51.048;4.686;2023-01-10T12:28:27;101605.56;;;6.88;100.00
44140;BME280;29803;51.048;4.686;2023-01-10T12:30:59;101606.97;;;6.92;100.00
44140;BME280;29803;51.048;4.686;2023-01-10T12:33:42;101600.69;;;6.93;100.00
44140;BME280;29803;51.048;4.686;2023-01-10T12:36:33;101598.03;;;6.93;100.00
44140;BME280;29803;51.048;4.686;2023-01-10T12:39:13;101585.41;;;6.95;100.00
44140;BME280;29803;51.048;4.686;2023-01-10T12:44:53;101583.06;;;7.01;100.00
44140;BME280;29803;51.048;4.686;2023-01-10T12:50:28;101578.47;;;7.04;100.00
44140;BME280;29803;51.048;4.686;2023-01-10T12:53:04;101578.25;;;6.95;100.00
44140;BME280;29803;51.048;4.686;2023-01-10T12:55:41;101564.91;;;6.95;100.00
44140;BME280;29803;51.048;4.686;2023-01-10T12:58:31;101563.34;;;6.93;100.00
44140;BME280;29803;51.048;4.686;2023-01-10T13:01:05;101558.13;;;6.91;100.00
44140;BME280;29803;51.048;4.686;2023-01-10T13:03:36;101554.00;;;6.98;100.00
44140;BME280;29803;51.048;4.686;2023-01-10T13:06:20;101551.13;;;6.79;100.00
44140;BME280;29803;51.048;4.686;2023-01-10T13:08:52;101538.78;;;6.78;100.00
44140;BME280;29803;51.048;4.686;2023-01-10T13:11:23;101537.06;;;6.77;100.00
44140;BME280;29803;51.048;4.686;2023-01-10T13:14:01;101526.28;;;6.67;100.00
44140;BME280;29803;51.048;4.686;2023-01-10T13:16:43;101525.44;;;6.67;100.00
44140;BME280;29803;51.048;4.686;2023-01-10T13:22:20;101506.69;;;6.57;100.00
44140;BME280;29803;51.048;4.686;2023-01-10T13:24:56;101512.00;;;6.57;100.00
44140;BME280;29803;51.048;4.686;2023-01-10T13:27:32;101508.50;;;6.57;100.00
44140;BME280;29803;51.048;4.686;2023-01-10T13:30:04;101505.72;;;6.58;100.00
44140;BME280;29803;51.048;4.686;2023-01-10T13:32:35;101490.09;;;6.54;100.00
44140;BME280;29803;51.048;4.686;2023-01-10T13:35:17;101491.09;;;6.53;100.00
44140;BME280;29803;51.048;4.686;2023-01-10T13:37:54;101480.78;;;6.48;100.00
44140;BME280;29803;51.048;4.686;2023-01-10T13:40:27;101474.00;;;6.44;100.00
44140;BME280;29803;51.048;4.686;2023-01-10T13:51:20;101469.06;;;6.28;100.00
44140;BME280;29803;51.048;4.686;2023-01-10T13:53:56;101463.25;;;6.23;100.00
44140;BME280;29803;51.048;4.686;2023-01-10T13:56:44;101456.22;;;6.22;100.00
44140;BME280;29803;51.048;4.686;2023-01-10T14:02:22;101444.38;;;6.15;100.00
44140;BME280;29803;51.048;4.686;2023-01-10T14:05:07;101429.47;;;6.12;100.00
44140;BME280;29803;51.048;4.686;2023-01-10T14:07:48;101427.19;;;6.08;100.00
44140;BME280;29803;51.048;4.686;2023-01-10T14:10:30;101417.38;;;6.08;100.00
44140;BME280;29803;51.048;4.686;2023-01-10T14:13:04;101419.44;;;6.05;100.00
44140;BME280;29803;51.048;4.686;2023-01-10T14:15:43;101412.28;;;6.05;100.00
44140;BME280;29803;51.048;4.686;2023-01-10T14:20:57;101391.34;;;6.01;100.00
44140;BME280;29803;51.048;4.686;2023-01-10T14:23:36;101385.56;;;5.95;100.00
44140;BME280;29803;51.048;4.686;2023-01-10T14:28:55;101379.84;;;5.89;100.00
44140;BME280;29803;51.048;4.686;2023-01-10T14:31:25;101367.38;;;5.89;100.00
44140;BME280;29803;51.048;4.686;2023-01-10T14:33:57;101357.94;;;5.85;100.00
44140;BME280;29803;51.048;4.686;2023-01-10T14:36:32;101350.31;;;5.81;100.00
44140;BME280;29803;51.048;4.686;2023-01-10T14:39:12;101357.69;;;5.77;100.00
44140;BME280;29803;51.048;4.686;2023-01-10T14:41:45;101349.69;;;5.77;100.00
44140;BME280;29803;51.048;4.686;2023-01-10T14:44:25;101346.47;;;5.74;100.00
44140;BME280;29803;51.048;4.686;2023-01-10T14:46:58;101352.75;;;5.72;100.00
44140;BME280;29803;51.048;4.686;2023-01-10T14:49:35;101332.31;;;5.73;100.00
44140;BME280;29803;51.048;4.686;2023-01-10T14:52:16;101330.50;;;5.74;100.00
44140;BME280;29803;51.048;4.686;2023-01-10T14:55:11;101312.94;;;5.71;100.00